Time;durP1;ratioP1;P1;durP2;ratioP2;P2;SDS_P1;SDS_P2;PMS_P1;PMS_P2;Temp;Humidity;BMP_temperature;BMP_pressure;BME280_temperature;BME280_humidity;BME280_pressure;Samples;Min_cycle;Max_cycle;Signal;HPM_P1;HPM_P2
2021/03/30 00:03:56;;;;;;;6.32;5.13;;;;;;;;;;9999678;29;20048;-62
2021/03/30 00:08:54;;;;;;;8.98;6.22;;;;;;;;;;9999421;29;20080;-64
2021/03/30 00:13:51;;;;;;;8.40;5.63;;;;;;;;;;10030671;29;20048;-63
2021/03/30 00:18:48;;;;;;;8.95;5.90;;;;;;;;;;10037913;29;20079;-64
2021/03/30 00:23:45;;;;;;;6.63;5.60;;;;;;;;;;10037274;29;20488;-64
2021/03/30 00:28:44;;;;;;;9.15;5.80;;;;;;;;;;10037285;29;20087;-64
2021/03/30 00:33:42;;;;;;;7.47;5.55;;;;;;;;;;10037699;29;20043;-64
2021/03/30 00:38:39;;;;;;;10.85;5.45;;;;;;;;;;10034992;29;20082;-64
2021/03/30 00:43:37;;;;;;;8.43;5.50;;;;;;;;;;10027376;29;20055;-64
2021/03/30 00:48:35;;;;;;;11.30;6.25;;;;;;;;;;10037368;29;20083;-64
2021/03/30 00:53:33;;;;;;;11.95;5.60;;;;;;;;;;10029183;29;20059;-64
2021/03/30 00:58:48;;;;;;;8.35;5.50;;;;;;;;;;10003738;29;20060;-64
2021/03/30 01:03:46;;;;;;;7.00;5.90;;;;;;;;;;10006133;29;20048;-64
2021/03/30 01:08:52;;;;;;;9.00;5.90;;;;;;;;;;10005870;29;20087;-64
2021/03/30 01:13:55;;;;;;;8.68;5.40;;;;;;;;;;10005159;29;20044;-64
2021/03/30 01:18:55;;;;;;;8.68;6.10;;;;;;;;;;10005725;29;20494;-63
2021/03/30 01:23:57;;;;;;;9.23;5.28;;;;;;;;;;10005233;29;20055;-64
2021/03/30 01:28:58;;;;;;;8.32;5.45;;;;;;;;;;10004631;29;20091;-64
2021/03/30 01:33:57;;;;;;;7.82;6.20;;;;;;;;;;10005190;29;20061;-63
2021/03/30 01:38:55;;;;;;;8.63;6.03;;;;;;;;;;10003850;29;20052;-63
2021/03/30 01:43:54;;;;;;;18.48;5.93;;;;;;;;;;10004451;29;20080;-63
2021/03/30 01:48:52;;;;;;;10.75;6.70;;;;;;;;;;10004278;29;20505;-63
2021/03/30 01:53:51;;;;;;;9.07;6.10;;;;;;;;;;10004363;29;20048;-63
2021/03/30 01:58:50;;;;;;;7.65;6.35;;;;;;;;;;10003941;29;20120;-63
2021/03/30 02:03:47;;;;;;;10.60;5.63;;;;;;;;;;10003591;29;20079;-63
2021/03/30 02:08:45;;;;;;;9.52;6.53;;;;;;;;;;10002472;29;20525;-63
2021/03/30 02:13:52;;;;;;;9.63;6.53;;;;;;;;;;10003129;29;20044;-62
2021/03/30 02:18:54;;;;;;;10.75;6.63;;;;;;;;;;10002639;29;20056;-63
2021/03/30 02:23:51;;;;;;;11.85;6.03;;;;;;;;;;10003297;29;20075;-63
2021/03/30 02:28:53;;;;;;;9.20;6.35;;;;;;;;;;10005034;29;20092;-62
2021/03/30 02:33:52;;;;;;;13.40;6.63;;;;;;;;;;10034066;29;20493;-63
2021/03/30 02:38:49;;;;;;;8.25;6.68;;;;;;;;;;10001756;29;20084;-62
2021/03/30 02:43:46;;;;;;;11.00;6.75;;;;;;;;;;10006846;29;20090;-62
2021/03/30 02:48:45;;;;;;;11.80;6.55;;;;;;;;;;10016076;29;20490;-61
2021/03/30 02:53:42;;;;;;;12.02;6.95;;;;;;;;;;10012178;29;20051;-62
2021/03/30 02:58:40;;;;;;;12.05;7.03;;;;;;;;;;10009300;29;20434;-62
2021/03/30 03:03:39;;;;;;;10.57;6.95;;;;;;;;;;10040632;29;20083;-63
2021/03/30 03:08:37;;;;;;;11.02;6.93;;;;;;;;;;10024220;29;20128;-64
2021/03/30 03:13:35;;;;;;;9.27;7.43;;;;;;;;;;10000967;29;20469;-63
2021/03/30 03:18:33;;;;;;;7.32;6.45;;;;;;;;;;10010682;29;20497;-64
2021/03/30 03:23:31;;;;;;;10.48;7.55;;;;;;;;;;10016197;29;20080;-64
2021/03/30 03:28:29;;;;;;;10.18;7.90;;;;;;;;;;10013352;29;20079;-63
2021/03/30 03:33:27;;;;;;;13.93;8.55;;;;;;;;;;10017940;29;20083;-64
2021/03/30 03:38:25;;;;;;;17.05;8.98;;;;;;;;;;10009080;29;20075;-65
2021/03/30 03:43:23;;;;;;;10.48;8.05;;;;;;;;;;9992294;29;20076;-64
2021/03/30 03:48:21;;;;;;;12.30;8.55;;;;;;;;;;9992142;29;20098;-64
2021/03/30 03:53:18;;;;;;;10.82;7.38;;;;;;;;;;9994310;29;20076;-62
2021/03/30 03:58:18;;;;;;;8.27;7.43;;;;;;;;;;9998920;29;20445;-63
2021/03/30 04:03:20;;;;;;;11.73;8.50;;;;;;;;;;9999653;29;20213;-62
2021/03/30 04:08:19;;;;;;;15.27;8.20;;;;;;;;;;9999730;29;20087;-62
2021/03/30 04:13:20;;;;;;;13.65;9.75;;;;;;;;;;9999673;29;20401;-61
2021/03/30 04:18:17;;;;;;;12.95;9.30;;;;;;;;;;9998967;29;20064;-62
2021/03/30 04:23:15;;;;;;;13.25;9.10;;;;;;;;;;9999675;29;20075;-62
2021/03/30 04:28:13;;;;;;;14.32;11.02;;;;;;;;;;9999149;29;20080;-62
2021/03/30 04:33:10;;;;;;;27.55;13.52;;;;;;;;;;9998621;29;20055;-63
2021/03/30 04:38:07;;;;;;;33.38;15.13;;;;;;;;;;9999287;29;20068;-61
2021/03/30 04:43:05;;;;;;;19.13;11.13;;;;;;;;;;9998749;29;20080;-62
2021/03/30 04:48:03;;;;;;;28.00;16.17;;;;;;;;;;9998522;29;20103;-62
2021/03/30 04:53:00;;;;;;;43.80;20.67;;;;;;;;;;9998543;29;20079;-62
2021/03/30 04:57:58;;;;;;;49.70;22.35;;;;;;;;;;9998628;29;20044;-62
2021/03/30 05:02:55;;;;;;;41.42;19.65;;;;;;;;;;9998176;29;20072;-63
2021/03/30 05:07:53;;;;;;;35.42;16.38;;;;;;;;;;9998285;29;20049;-62
2021/03/30 05:12:50;;;;;;;38.40;19.17;;;;;;;;;;9998189;29;20079;-63
2021/03/30 05:17:48;;;;;;;28.67;18.60;;;;;;;;;;9998030;29;20521;-63
2021/03/30 05:22:45;;;;;;;35.65;20.77;;;;;;;;;;9997716;29;20048;-64
2021/03/30 05:27:43;;;;;;;25.40;15.65;;;;;;;;;;9997706;29;20048;-64
2021/03/30 05:32:40;;;;;;;20.33;13.52;;;;;;;;;;9997559;29;20083;-64
2021/03/30 05:37:38;;;;;;;19.67;13.18;;;;;;;;;;9997736;29;20083;-64
2021/03/30 05:42:36;;;;;;;28.15;16.70;;;;;;;;;;10000408;29;20088;-64
2021/03/30 05:47:35;;;;;;;25.75;17.25;;;;;;;;;;10004538;29;20549;-64
2021/03/30 05:52:43;;;;;;;30.25;16.83;;;;;;;;;;10003935;29;20498;-64
2021/03/30 05:57:40;;;;;;;38.65;18.17;;;;;;;;;;10004299;29;20048;-64
2021/03/30 06:02:40;;;;;;;29.52;15.00;;;;;;;;;;10004135;29;20071;-64
2021/03/30 06:07:38;;;;;;;24.60;14.68;;;;;;;;;;10003954;29;20047;-62
2021/03/30 06:12:35;;;;;;;31.58;18.65;;;;;;;;;;10003556;29;20475;-63
2021/03/30 06:17:40;;;;;;;27.33;19.52;;;;;;;;;;10003328;29;20071;-63
2021/03/30 06:22:45;;;;;;;34.47;16.95;;;;;;;;;;10003361;29;20048;-63
2021/03/30 06:27:43;;;;;;;26.85;19.67;;;;;;;;;;10002973;29;20075;-61
2021/03/30 06:32:41;;;;;;;31.63;17.13;;;;;;;;;;10002903;29;20079;-62
2021/03/30 06:37:39;;;;;;;24.08;17.48;;;;;;;;;;10002754;29;20078;-62
2021/03/30 06:54:21;;;;;;;36.75;28.85;;;;;;;;;;10001712;29;20047;-61
2021/03/30 06:59:18;;;;;;;35.17;24.45;;;;;;;;;;10001965;29;20076;-62
2021/03/30 07:04:16;;;;;;;61.35;44.83;;;;;;;;;;10002262;29;20040;-61
2021/03/30 07:09:14;;;;;;;39.83;26.67;;;;;;;;;;10002100;29;20091;-62
2021/03/30 07:14:12;;;;;;;31.73;23.25;;;;;;;;;;10001391;29;20083;-60
2021/03/30 07:19:11;;;;;;;22.90;16.40;;;;;;;;;;10001089;29;20048;-62
2021/03/30 07:24:10;;;;;;;21.13;15.85;;;;;;;;;;10001102;29;20522;-62
2021/03/30 07:29:10;;;;;;;21.25;14.48;;;;;;;;;;10000332;29;20087;-61
2021/03/30 07:34:10;;;;;;;20.38;12.98;;;;;;;;;;10001043;29;20044;-61
2021/03/30 07:39:08;;;;;;;22.75;14.63;;;;;;;;;;10000024;29;20505;-61
2021/03/30 07:44:06;;;;;;;17.38;12.90;;;;;;;;;;10000718;29;20076;-61
2021/03/30 07:49:04;;;;;;;16.45;10.85;;;;;;;;;;10000257;29;20099;-61
2021/03/30 07:54:10;;;;;;;16.75;11.50;;;;;;;;;;10000320;29;20429;-61
2021/03/30 07:59:08;;;;;;;17.90;11.30;;;;;;;;;;10000066;29;20047;-61
2021/03/30 08:04:05;;;;;;;10.50;8.55;;;;;;;;;;10000040;29;20075;-62
2021/03/30 08:09:13;;;;;;;16.08;9.23;;;;;;;;;;9999845;29;20087;-61
2021/03/30 08:14:11;;;;;;;14.77;9.52;;;;;;;;;;9999522;29;20071;-61
2021/03/30 08:19:24;;;;;;;16.13;10.93;;;;;;;;;;9999809;29;20048;-61
2021/03/30 08:24:23;;;;;;;10.98;9.07;;;;;;;;;;9999491;29;20091;-61
2021/03/30 08:29:23;;;;;;;19.63;12.02;;;;;;;;;;9998744;29;20094;-62
2021/03/30 08:34:22;;;;;;;12.38;9.30;;;;;;;;;;9999429;29;20080;-60
2021/03/30 08:39:33;;;;;;;12.20;9.13;;;;;;;;;;9998959;29;20090;-62
2021/03/30 08:44:32;;;;;;;11.77;9.65;;;;;;;;;;9998698;29;20054;-63
2021/03/30 08:49:49;;;;;;;18.25;10.32;;;;;;;;;;9997255;29;20094;-63
2021/03/30 08:54:53;;;;;;;22.05;11.48;;;;;;;;;;9998779;29;20052;-65
2021/03/30 08:59:50;;;;;;;14.77;10.63;;;;;;;;;;9999080;29;20067;-63
2021/03/30 09:04:47;;;;;;;13.85;9.13;;;;;;;;;;9998698;29;20080;-64
2021/03/30 09:09:46;;;;;;;12.90;9.73;;;;;;;;;;9998863;29;20180;-66
2021/03/30 09:14:45;;;;;;;16.15;11.30;;;;;;;;;;9997928;29;20072;-62
2021/03/30 09:19:44;;;;;;;16.08;11.35;;;;;;;;;;10004672;29;20051;-63
2021/03/30 09:24:53;;;;;;;12.55;10.45;;;;;;;;;;10005540;29;20098;-62
2021/03/30 09:29:53;;;;;;;14.63;10.30;;;;;;;;;;10004838;29;20522;-60
2021/03/30 09:34:51;;;;;;;12.40;8.30;;;;;;;;;;10005659;29;20538;-60
2021/03/30 09:39:48;;;;;;;16.52;10.10;;;;;;;;;;10005036;29;20055;-60
2021/03/30 09:44:46;;;;;;;9.52;7.55;;;;;;;;;;10005132;29;20043;-63
2021/03/30 09:49:44;;;;;;;9.50;8.02;;;;;;;;;;10005057;29;20087;-62
2021/03/30 09:54:43;;;;;;;12.23;9.00;;;;;;;;;;10002943;29;20195;-62
2021/03/30 09:59:44;;;;;;;22.25;14.25;;;;;;;;;;10003954;29;20068;-62
2021/03/30 10:04:41;;;;;;;30.48;19.60;;;;;;;;;;10003687;29;20060;-63
2021/03/30 10:10:00;;;;;;;12.15;9.65;;;;;;;;;;10003911;29;20094;-64
2021/03/30 10:14:58;;;;;;;10.75;8.00;;;;;;;;;;10004067;29;20421;-61
2021/03/30 10:19:56;;;;;;;11.02;8.18;;;;;;;;;;10003811;29;20087;-62
2021/03/30 10:25:15;;;;;;;12.43;8.52;;;;;;;;;;10003949;29;20519;-64
2021/03/30 10:30:13;;;;;;;14.05;9.93;;;;;;;;;;10001308;29;20096;-63
2021/03/30 10:35:10;;;;;;;14.35;10.00;;;;;;;;;;10003654;29;20071;-63
2021/03/30 10:40:10;;;;;;;11.00;8.27;;;;;;;;;;10003072;29;20051;-63
2021/03/30 10:45:09;;;;;;;15.82;8.80;;;;;;;;;;10002875;29;20052;-64
2021/03/30 10:50:08;;;;;;;9.82;8.48;;;;;;;;;;10002274;29;20095;-63
2021/03/30 10:55:07;;;;;;;10.55;8.63;;;;;;;;;;10002494;29;20506;-64
2021/03/30 11:00:06;;;;;;;12.98;9.52;;;;;;;;;;10002443;29;20072;-62
2021/03/30 11:05:04;;;;;;;13.90;9.90;;;;;;;;;;10002461;29;20497;-62
2021/03/30 11:10:04;;;;;;;12.73;9.55;;;;;;;;;;10002087;29;20099;-63
2021/03/30 11:15:02;;;;;;;17.90;9.75;;;;;;;;;;10001208;29;20044;-62
2021/03/30 11:19:59;;;;;;;16.08;11.82;;;;;;;;;;10001952;29;20453;-61
2021/03/30 11:25:00;;;;;;;13.55;9.60;;;;;;;;;;10001378;29;20048;-61
2021/03/30 11:30:06;;;;;;;20.75;14.18;;;;;;;;;;10000858;29;20109;-63
2021/03/30 11:35:08;;;;;;;14.95;10.02;;;;;;;;;;10000174;29;20083;-62
2021/03/30 11:40:07;;;;;;;15.45;11.90;;;;;;;;;;10001006;29;20096;-60
2021/03/30 11:45:05;;;;;;;16.10;11.75;;;;;;;;;;10000757;29;20087;-61
2021/03/30 11:50:04;;;;;;;12.57;10.57;;;;;;;;;;10000708;29;20084;-61
2021/03/30 11:55:01;;;;;;;13.63;12.05;;;;;;;;;;10000248;29;20059;-62
2021/03/30 11:59:59;;;;;;;14.38;10.43;;;;;;;;;;10000233;29;20076;-61
2021/03/30 12:05:18;;;;;;;15.23;10.80;;;;;;;;;;10000791;29;20473;-63
2021/03/30 12:10:15;;;;;;;18.65;11.88;;;;;;;;;;9999061;29;20091;-61
2021/03/30 12:15:14;;;;;;;18.45;12.57;;;;;;;;;;10000227;29;20040;-62
2021/03/30 12:20:12;;;;;;;14.10;11.52;;;;;;;;;;10000160;29;20078;-61
2021/03/30 12:25:10;;;;;;;19.17;14.43;;;;;;;;;;9997873;29;20410;-61
2021/03/30 12:30:08;;;;;;;26.98;17.60;;;;;;;;;;9998573;29;20088;-62
2021/03/30 12:35:07;;;;;;;16.23;12.85;;;;;;;;;;9999258;29;20091;-63
2021/03/30 12:40:05;;;;;;;16.00;10.95;;;;;;;;;;9998590;29;20087;-61
2021/03/30 12:45:03;;;;;;;15.43;12.60;;;;;;;;;;9999136;29;20505;-60
2021/03/30 12:50:00;;;;;;;17.10;13.10;;;;;;;;;;9998798;29;20103;-60
2021/03/30 12:55:05;;;;;;;17.52;14.15;;;;;;;;;;10006169;29;20079;-60
2021/03/30 13:00:02;;;;;;;;;;;;;;;;;;10006834;29;20048;-61
2021/03/30 13:05:00;;;;;;;25.02;18.08;;;;;;;;;;10006836;29;20332;-61
2021/03/30 13:09:57;;;;;;;18.52;15.05;;;;;;;;;;10006483;29;20119;-62
2021/03/30 13:14:55;;;;;;;18.35;13.25;;;;;;;;;;10005263;29;20081;-63
2021/03/30 13:19:53;;;;;;;16.95;13.75;;;;;;;;;;10003981;29;20067;-62
2021/03/30 13:24:50;;;;;;;24.15;16.13;;;;;;;;;;10004526;29;20613;-63
2021/03/30 13:29:48;;;;;;;17.73;14.70;;;;;;;;;;10004876;29;20095;-61
2021/03/30 13:34:47;;;;;;;17.80;14.38;;;;;;;;;;10005342;29;20075;-63
2021/03/30 13:39:45;;;;;;;14.38;12.48;;;;;;;;;;10005267;29;20091;-63
2021/03/30 13:44:42;;;;;;;17.98;11.45;;;;;;;;;;10003172;29;20152;-63
2021/03/30 13:49:40;;;;;;;20.60;16.98;;;;;;;;;;10004363;29;20080;-61
2021/03/30 13:54:40;;;;;;;90.35;66.80;;;;;;;;;;10004654;29;20068;-60
2021/03/30 13:59:37;;;;;;;17.55;13.82;;;;;;;;;;10004685;29;20075;-62
2021/03/30 14:04:34;;;;;;;24.98;17.80;;;;;;;;;;10003750;29;20052;-64
2021/03/30 14:09:33;;;;;;;30.45;21.67;;;;;;;;;;10004264;29;20386;-64
2021/03/30 14:14:33;;;;;;;24.50;18.55;;;;;;;;;;10004045;29;20088;-63
2021/03/30 14:19:35;;;;;;;22.15;18.23;;;;;;;;;;10003442;29;20512;-64
2021/03/30 14:24:56;;;;;;;27.42;21.17;;;;;;;;;;10004837;29;20051;-65
2021/03/30 14:29:54;;;;;;;23.75;16.55;;;;;;;;;;10014344;29;20079;-65
2021/03/30 14:34:53;;;;;;;22.75;16.65;;;;;;;;;;10023262;29;20086;-62
2021/03/30 14:39:51;;;;;;;20.10;16.85;;;;;;;;;;10019344;29;20086;-63
2021/03/30 14:45:02;;;;;;;19.50;16.23;;;;;;;;;;10011461;29;20078;-63
2021/03/30 14:55:58;;;;;;;16.70;14.05;;;;;;;;;;9957857;29;20537;-64
2021/03/30 15:01:34;;;;;;;21.00;16.70;;;;;;;;;;9994580;29;20110;-65
2021/03/30 15:06:33;;;;;;;15.93;14.23;;;;;;;;;;10010727;29;20079;-64
2021/03/30 15:11:30;;;;;;;25.30;17.30;;;;;;;;;;10014547;29;20514;-65
2021/03/30 15:16:27;;;;;;;27.20;18.25;;;;;;;;;;10010665;29;20490;-63
2021/03/30 15:21:25;;;;;;;23.63;17.90;;;;;;;;;;10014422;29;20079;-64
2021/03/30 15:26:23;;;;;;;41.25;29.75;;;;;;;;;;10011568;29;20090;-61
2021/03/30 15:31:21;;;;;;;28.52;22.38;;;;;;;;;;10018801;29;20087;-62
2021/03/30 15:36:39;;;;;;;23.88;17.90;;;;;;;;;;10018300;29;20083;-63
2021/03/30 15:41:38;;;;;;;30.33;22.77;;;;;;;;;;10006006;29;20130;-63
2021/03/30 15:51:47;;;;;;;21.13;16.27;;;;;;;;;;10014777;29;20471;-65
2021/03/30 15:56:45;;;;;;;21.63;14.93;;;;;;;;;;10013287;29;21454;-62
2021/03/30 16:01:42;;;;;;;23.20;18.02;;;;;;;;;;10007111;29;20068;-63
2021/03/30 16:06:40;;;;;;;34.10;26.08;;;;;;;;;;10020399;29;20079;-63
2021/03/30 16:11:37;;;;;;;30.40;23.98;;;;;;;;;;10026253;29;20079;-64
2021/03/30 16:16:35;;;;;;;95.75;70.03;;;;;;;;;;10019912;29;20086;-63
2021/03/30 16:21:33;;;;;;;26.00;19.70;;;;;;;;;;10004830;29;20080;-64
2021/03/30 16:26:34;;;;;;;27.90;21.00;;;;;;;;;;10011580;29;20082;-65
2021/03/30 16:31:31;;;;;;;54.42;34.13;;;;;;;;;;10026132;29;20611;-65
2021/03/30 16:36:29;;;;;;;66.03;44.53;;;;;;;;;;10012915;29;20092;-63
2021/03/30 16:41:27;;;;;;;30.25;26.50;;;;;;;;;;10009228;29;20465;-65
2021/03/30 16:46:24;;;;;;;47.75;32.40;;;;;;;;;;10022002;29;20084;-65
2021/03/30 16:51:24;;;;;;;39.25;32.63;;;;;;;;;;10017894;29;20079;-65
2021/03/30 16:56:23;;;;;;;27.50;20.95;;;;;;;;;;10015121;29;20100;-65
2021/03/30 17:01:20;;;;;;;33.45;29.38;;;;;;;;;;10013617;29;20541;-64
2021/03/30 17:06:18;;;;;;;32.22;25.33;;;;;;;;;;9997921;29;20056;-63
2021/03/30 17:11:15;;;;;;;28.73;23.65;;;;;;;;;;9998373;29;20088;-64
2021/03/30 17:16:14;;;;;;;34.88;26.08;;;;;;;;;;9998260;29;20533;-64
2021/03/30 17:21:12;;;;;;;29.20;21.33;;;;;;;;;;10006348;29;20071;-64
2021/03/30 17:26:09;;;;;;;142.35;71.47;;;;;;;;;;10007109;29;20076;-64
2021/03/30 17:31:07;;;;;;;46.40;32.05;;;;;;;;;;9996708;29;20103;-64
2021/03/30 17:36:05;;;;;;;29.80;22.75;;;;;;;;;;10005483;29;20067;-64
2021/03/30 17:41:04;;;;;;;30.98;22.60;;;;;;;;;;10016304;29;20087;-63
2021/03/30 17:46:03;;;;;;;61.92;32.70;;;;;;;;;;10018986;29;20048;-64
2021/03/30 17:51:03;;;;;;;29.50;21.58;;;;;;;;;;10022384;29;20090;-63
2021/03/30 17:56:01;;;;;;;26.00;20.23;;;;;;;;;;10019121;29;20086;-64
2021/03/30 18:00:59;;;;;;;43.42;27.95;;;;;;;;;;10020800;29;20071;-64
2021/03/30 18:05:56;;;;;;;31.27;21.92;;;;;;;;;;10022421;29;20498;-64
2021/03/30 18:10:53;;;;;;;29.88;22.65;;;;;;;;;;10020319;29;20083;-63
2021/03/30 18:15:52;;;;;;;28.30;22.73;;;;;;;;;;10024158;29;20048;-64
2021/03/30 18:20:49;;;;;;;28.80;22.33;;;;;;;;;;10012336;29;20059;-63
2021/03/30 18:25:46;;;;;;;28.90;20.58;;;;;;;;;;10023679;29;20044;-64
2021/03/30 18:30:44;;;;;;;24.90;16.83;;;;;;;;;;10014184;29;20092;-64
2021/03/30 18:35:42;;;;;;;27.02;19.55;;;;;;;;;;10034347;29;20070;-64
2021/03/30 18:40:39;;;;;;;23.63;16.27;;;;;;;;;;10016967;29;20047;-64
2021/03/30 18:45:37;;;;;;;19.27;16.50;;;;;;;;;;10017866;29;20067;-65
2021/03/30 18:50:34;;;;;;;19.40;15.57;;;;;;;;;;10017440;29;20082;-65
2021/03/30 18:55:35;;;;;;;20.92;15.15;;;;;;;;;;10010859;29;20075;-63
2021/03/30 19:00:34;;;;;;;18.88;13.75;;;;;;;;;;10013106;29;20072;-64
2021/03/30 19:05:35;;;;;;;15.82;11.52;;;;;;;;;;10011410;29;20458;-65
2021/03/30 19:10:35;;;;;;;18.23;13.85;;;;;;;;;;10036819;29;20067;-64
2021/03/30 19:15:38;;;;;;;14.30;12.68;;;;;;;;;;10014085;29;20091;-64
2021/03/30 19:20:36;;;;;;;15.82;12.13;;;;;;;;;;10002965;29;20070;-66
2021/03/30 19:25:35;;;;;;;14.00;12.40;;;;;;;;;;10011407;29;20481;-65
2021/03/30 19:30:36;;;;;;;15.73;12.63;;;;;;;;;;10038705;29;20429;-63
2021/03/30 19:35:42;;;;;;;19.75;13.57;;;;;;;;;;10024408;29;20102;-64
2021/03/30 19:40:40;;;;;;;20.20;13.27;;;;;;;;;;10024547;29;20079;-64
2021/03/30 19:45:39;;;;;;;16.42;13.20;;;;;;;;;;10032427;29;20071;-64
2021/03/30 19:50:37;;;;;;;21.05;13.75;;;;;;;;;;10009614;29;20134;-64
2021/03/30 19:55:36;;;;;;;21.45;14.52;;;;;;;;;;10025836;29;20067;-62
2021/03/30 20:00:35;;;;;;;15.88;12.32;;;;;;;;;;10027896;29;20090;-62
2021/03/30 20:05:33;;;;;;;13.80;12.32;;;;;;;;;;10027074;29;20064;-65
2021/03/30 20:10:30;;;;;;;15.32;11.15;;;;;;;;;;10025001;29;21300;-64
2021/03/30 20:15:28;;;;;;;12.38;10.88;;;;;;;;;;10028478;29;20071;-65
2021/03/30 20:20:26;;;;;;;15.02;12.48;;;;;;;;;;10026652;29;20478;-64
2021/03/30 20:25:24;;;;;;;13.30;10.38;;;;;;;;;;10024634;29;20076;-63
2021/03/30 20:30:23;;;;;;;15.02;11.25;;;;;;;;;;10019861;29;20064;-65
2021/03/30 20:35:20;;;;;;;11.80;10.45;;;;;;;;;;10035072;29;20079;-64
2021/03/30 20:40:22;;;;;;;15.02;13.38;;;;;;;;;;10036962;29;20072;-64
2021/03/30 20:45:22;;;;;;;16.05;11.65;;;;;;;;;;10037393;29;20083;-63
2021/03/30 20:50:21;;;;;;;17.90;12.48;;;;;;;;;;10037831;29;20496;-63
2021/03/30 20:55:18;;;;;;;18.33;12.60;;;;;;;;;;10030450;29;20075;-64
2021/03/30 21:00:17;;;;;;;17.85;12.27;;;;;;;;;;10018690;29;20056;-63
2021/03/30 21:05:15;;;;;;;17.30;14.20;;;;;;;;;;10029661;29;20039;-63
2021/03/30 21:10:13;;;;;;;11.40;10.27;;;;;;;;;;10037194;29;20079;-63
2021/03/30 21:15:10;;;;;;;16.10;11.82;;;;;;;;;;10042511;29;20484;-65
2021/03/30 21:20:10;;;;;;;13.75;10.43;;;;;;;;;;10044770;29;20075;-64
2021/03/30 21:25:08;;;;;;;14.45;12.05;;;;;;;;;;10044349;29;20098;-64
2021/03/30 21:30:06;;;;;;;11.93;10.23;;;;;;;;;;10043455;29;20864;-63
2021/03/30 21:35:03;;;;;;;12.45;10.00;;;;;;;;;;10040981;29;20067;-63
2021/03/30 21:40:02;;;;;;;14.25;10.07;;;;;;;;;;10030941;29;20044;-64
2021/03/30 21:44:59;;;;;;;9.95;8.52;;;;;;;;;;10015957;29;20063;-64
2021/03/30 21:49:56;;;;;;;10.90;9.27;;;;;;;;;;10013868;29;20056;-64
2021/03/30 21:54:53;;;;;;;9.80;8.80;;;;;;;;;;10042976;29;20087;-64
2021/03/30 21:59:52;;;;;;;9.55;8.57;;;;;;;;;;10041666;29;20047;-64
2021/03/30 22:04:49;;;;;;;11.43;9.50;;;;;;;;;;10016023;29;20479;-63
2021/03/30 22:09:47;;;;;;;10.18;8.55;;;;;;;;;;10003840;29;20462;-61
2021/03/30 22:14:45;;;;;;;11.73;8.35;;;;;;;;;;10003270;29;20087;-62
2021/03/30 22:19:43;;;;;;;15.30;8.85;;;;;;;;;;10003224;29;20076;-63
2021/03/30 22:24:40;;;;;;;10.27;8.98;;;;;;;;;;10020388;29;20111;-63
2021/03/30 22:29:46;;;;;;;11.80;10.00;;;;;;;;;;10016800;29;20164;-63
2021/03/30 22:34:45;;;;;;;11.25;9.32;;;;;;;;;;10042034;29;20488;-63
2021/03/30 22:39:42;;;;;;;13.23;10.63;;;;;;;;;;10041772;29;20087;-63
2021/03/30 22:44:40;;;;;;;10.70;9.60;;;;;;;;;;10037021;29;20517;-63
2021/03/30 22:49:37;;;;;;;11.18;9.63;;;;;;;;;;10002417;29;20063;-63
2021/03/30 22:54:35;;;;;;;13.70;11.15;;;;;;;;;;10002634;29;20075;-62
2021/03/30 22:59:32;;;;;;;13.90;10.70;;;;;;;;;;10002616;29;20048;-63
2021/03/30 23:04:30;;;;;;;11.60;10.40;;;;;;;;;;10001961;29;20079;-63
2021/03/30 23:09:27;;;;;;;11.70;10.52;;;;;;;;;;10001359;29;20091;-64
2021/03/30 23:14:25;;;;;;;12.02;10.65;;;;;;;;;;10001180;29;20082;-63
2021/03/30 23:19:22;;;;;;;19.13;17.17;;;;;;;;;;9999744;29;20052;-62
2021/03/30 23:24:19;;;;;;;13.50;10.38;;;;;;;;;;10001453;29;20063;-65
2021/03/30 23:29:17;;;;;;;15.93;11.32;;;;;;;;;;10000632;29;20056;-64
2021/03/30 23:34:15;;;;;;;15.75;12.13;;;;;;;;;;9999447;29;20083;-63
2021/03/30 23:39:12;;;;;;;13.65;11.23;;;;;;;;;;10001084;29;20044;-64
2021/03/30 23:44:09;;;;;;;11.45;10.23;;;;;;;;;;10001106;29;20044;-64
2021/03/30 23:49:07;;;;;;;15.05;11.15;;;;;;;;;;10000075;29;20064;-64
2021/03/30 23:54:06;;;;;;;12.45;9.65;;;;;;;;;;10000386;29;20083;-63
2021/03/30 23:59:03;;;;;;;9.82;8.60;;;;;;;;;;9999391;29;20098;-62
